Terminal Aerodrome Forecast
Issued by NWS Charleston, WV

Current Version | Previous Version | Text Only | Print | Product List | Glossary Off
Versions: 1 2 3 4 5 6 7 8 9 10 11 12 13 14 15 16 17 18 19 20 21 22 23 24

000
FTUS41 KRLX 290200 AAA
TAFPKB
TAF AMD
KPKB 290231Z 2903/2924 VRB03KT P6SM SKC
     FM290500 00000KT 5SM BR FEW250
     FM290700 00000KT 2SM BR FEW001
     FM290800 00000KT 1/4SM FG VV001
     FM291200 00000KT 5SM BR BKN001
     FM291300 00000KT P6SM FEW100=

USA.gov is the U.S. government's official web portal to all federal, state and local government web resources and services.